EWG3V EDDK-EDDB
Flight info
| Callsign | EWG3V |
|---|---|
| Flight time | 0h 50m |
| Altitude | 23000 |
| Route | PODIP2Q/13L PODIP Y867 PELUN/N0404F310 DCT ANZIV DCT WRB/N0426F350 DCT NORTA DCT BATEL T207 OGBER OGBER1L |
| Aircraft | A320/M-SDE2E3FGIJ1RWXYZ/HB1 |
Departure
| Time | 2026-04-30 18:52 |
|---|---|
| Airport | Cologne Bonn Airport (EDDK) |
Arrival
| Time | 2026-04-30 19:43 |
|---|---|
| Airport | Berlin Brandenburg Airport (EDDB) |
| Time | Latitude | Longitude | Altitude | Speed | Heading |
|---|---|---|---|---|---|
| 2026-04-30 17:39 | 50.87964 | 7.12415 | 232 ft | 0 kts | 246° |
| 2026-04-30 18:45 | 50.88024 | 7.12462 | 235 ft | 0 kts | 138° |
| 2026-04-30 18:47 | 50.88014 | 7.12475 | 232 ft | 6 kts | 138° |
| 2026-04-30 18:48 | 50.87978 | 7.12527 | 232 ft | 5 kts | 137° |
| 2026-04-30 18:48 | 50.87957 | 7.12557 | 232 ft | 4 kts | 137° |
| 2026-04-30 18:48 | 50.87941 | 7.12581 | 232 ft | 3 kts | 134° |
| 2026-04-30 18:48 | 50.87930 | 7.12615 | 232 ft | 5 kts | 105° |
| 2026-04-30 18:49 | 50.87945 | 7.12651 | 232 ft | 4 kts | 43° |
| 2026-04-30 18:49 | 50.87961 | 7.12675 | 232 ft | 3 kts | 43° |
| 2026-04-30 18:49 | 50.87979 | 7.12705 | 234 ft | 2 kts | 48° |
| 2026-04-30 18:49 | 50.87988 | 7.12722 | 235 ft | 4 kts | 54° |
| 2026-04-30 18:50 | 50.87995 | 7.12746 | 238 ft | 3 kts | 69° |
| 2026-04-30 18:50 | 50.87998 | 7.12760 | 236 ft | 0 kts | 71° |
| 2026-04-30 18:51 | 50.87999 | 7.12765 | 237 ft | 3 kts | 71° |
| 2026-04-30 18:51 | 50.88007 | 7.12862 | 239 ft | 14 kts | 91° |
| 2026-04-30 18:52 | 50.87947 | 7.13057 | 239 ft | 28 kts | 137° |
| 2026-04-30 18:52 | 50.87647 | 7.13494 | 239 ft | 94 kts | 137° |
| 2026-04-30 18:52 | 50.87010 | 7.14407 | 271 ft | 148 kts | 136° |
| 2026-04-30 18:52 | 50.86239 | 7.15487 | 948 ft | 148 kts | 135° |
| 2026-04-30 18:53 | 50.85474 | 7.16570 | 1712 ft | 147 kts | 133° |
| 2026-04-30 18:53 | 50.84721 | 7.17639 | 2490 ft | 144 kts | 134° |
| 2026-04-30 18:53 | 50.83986 | 7.18682 | 3229 ft | 141 kts | 135° |
| 2026-04-30 18:53 | 50.83264 | 7.19704 | 3959 ft | 138 kts | 136° |
| 2026-04-30 18:54 | 50.82555 | 7.20710 | 4662 ft | 136 kts | 136° |
| 2026-04-30 18:54 | 50.81951 | 7.21849 | 5289 ft | 138 kts | 123° |
| 2026-04-30 18:54 | 50.81532 | 7.23330 | 5626 ft | 160 kts | 108° |
| 2026-04-30 18:54 | 50.81341 | 7.25190 | 5910 ft | 183 kts | 101° |
| 2026-04-30 18:55 | 50.81154 | 7.27316 | 6228 ft | 208 kts | 100° |
| 2026-04-30 18:55 | 50.80719 | 7.32303 | 7258 ft | 247 kts | 99° |
| 2026-04-30 18:55 | 50.80617 | 7.34985 | 8261 ft | 249 kts | 84° |
| 2026-04-30 18:56 | 50.82191 | 7.39944 | 10127 ft | 263 kts | 60° |
| 2026-04-30 18:56 | 50.83226 | 7.42446 | 10591 ft | 283 kts | 60° |
| 2026-04-30 18:56 | 50.84348 | 7.45157 | 10927 ft | 307 kts | 59° |
| 2026-04-30 18:57 | 50.86811 | 7.51121 | 12056 ft | 331 kts | 59° |
| 2026-04-30 18:57 | 50.88074 | 7.54186 | 12928 ft | 333 kts | 59° |
| 2026-04-30 18:57 | 50.89341 | 7.57267 | 13806 ft | 335 kts | 58° |
| 2026-04-30 18:58 | 50.91901 | 7.63512 | 15289 ft | 341 kts | 58° |
| 2026-04-30 18:58 | 50.93195 | 7.66675 | 15990 ft | 344 kts | 58° |
| 2026-04-30 18:58 | 50.94501 | 7.69872 | 16709 ft | 347 kts | 58° |
| 2026-04-30 18:59 | 50.97147 | 7.76355 | 18102 ft | 354 kts | 58° |
| 2026-04-30 19:00 | 51.01201 | 7.86327 | 19956 ft | 363 kts | 59° |
| 2026-04-30 19:00 | 51.02573 | 7.89722 | 20533 ft | 366 kts | 59° |
| 2026-04-30 19:00 | 51.05340 | 7.96586 | 21647 ft | 373 kts | 59° |
| 2026-04-30 19:01 | 51.08167 | 8.03593 | 22732 ft | 379 kts | 59° |
| 2026-04-30 19:01 | 51.09579 | 8.07094 | 23249 ft | 383 kts | 59° |
| 2026-04-30 19:02 | 51.12478 | 8.14296 | 24339 ft | 386 kts | 58° |
| 2026-04-30 19:02 | 51.15358 | 8.21495 | 25217 ft | 391 kts | 58° |
| 2026-04-30 19:03 | 51.18291 | 8.28849 | 26050 ft | 396 kts | 58° |
| 2026-04-30 19:03 | 51.21267 | 8.36306 | 26861 ft | 401 kts | 58° |
| 2026-04-30 19:04 | 51.24273 | 8.43884 | 27645 ft | 407 kts | 58° |
| 2026-04-30 19:04 | 51.27309 | 8.51567 | 28408 ft | 412 kts | 58° |
| 2026-04-30 19:05 | 51.30394 | 8.59381 | 29148 ft | 418 kts | 58° |
| 2026-04-30 19:05 | 51.33506 | 8.67278 | 30082 ft | 419 kts | 57° |
| 2026-04-30 19:06 | 51.36591 | 8.75153 | 31036 ft | 416 kts | 57° |
| 2026-04-30 19:06 | 51.38115 | 8.79052 | 31626 ft | 411 kts | 57° |
| 2026-04-30 19:06 | 51.41129 | 8.86760 | 32683 ft | 406 kts | 57° |
| 2026-04-30 19:07 | 51.43611 | 8.93123 | 33473 ft | 404 kts | 57° |
| 2026-04-30 19:07 | 51.45091 | 8.96936 | 33954 ft | 403 kts | 57° |
| 2026-04-30 19:08 | 51.48042 | 9.04560 | 34727 ft | 403 kts | 57° |
| 2026-04-30 19:08 | 51.51702 | 9.13261 | 35296 ft | 407 kts | 49° |
| 2026-04-30 19:09 | 51.56624 | 9.22607 | 35425 ft | 404 kts | 49° |
| 2026-04-30 19:09 | 51.60222 | 9.29485 | 35434 ft | 400 kts | 49° |
| 2026-04-30 19:10 | 51.67391 | 9.43222 | 35422 ft | 402 kts | 49° |
| 2026-04-30 19:11 | 51.72755 | 9.53591 | 35431 ft | 401 kts | 50° |
| 2026-04-30 19:12 | 51.76325 | 9.60505 | 35436 ft | 401 kts | 49° |
| 2026-04-30 19:12 | 51.79899 | 9.67418 | 35438 ft | 401 kts | 49° |
| 2026-04-30 19:13 | 51.83491 | 9.74405 | 35440 ft | 412 kts | 50° |
| 2026-04-30 19:13 | 51.87153 | 9.81555 | 35441 ft | 416 kts | 49° |
| 2026-04-30 19:14 | 51.90924 | 9.88692 | 35442 ft | 417 kts | 48° |
| 2026-04-30 19:14 | 51.94767 | 9.95752 | 35444 ft | 418 kts | 47° |
| 2026-04-30 19:15 | 51.98605 | 10.02826 | 35447 ft | 418 kts | 48° |
| 2026-04-30 19:15 | 52.04321 | 10.13527 | 35447 ft | 418 kts | 48° |
| 2026-04-30 19:16 | 52.08114 | 10.20679 | 35447 ft | 418 kts | 49° |
| 2026-04-30 19:16 | 52.11913 | 10.27867 | 35226 ft | 420 kts | 48° |
| 2026-04-30 19:17 | 52.13822 | 10.31470 | 34854 ft | 420 kts | 48° |
| 2026-04-30 19:17 | 52.17721 | 10.38830 | 34081 ft | 435 kts | 48° |
| 2026-04-30 19:17 | 52.19692 | 10.42565 | 33592 ft | 433 kts | 48° |
| 2026-04-30 19:18 | 52.22922 | 10.48712 | 32703 ft | 426 kts | 48° |
| 2026-04-30 19:18 | 52.25480 | 10.53590 | 31970 ft | 420 kts | 48° |
| 2026-04-30 19:18 | 52.27371 | 10.57200 | 31449 ft | 416 kts | 48° |
| 2026-04-30 19:19 | 52.29243 | 10.60774 | 30928 ft | 412 kts | 48° |
| 2026-04-30 19:19 | 52.31094 | 10.64318 | 30409 ft | 408 kts | 48° |
| 2026-04-30 19:19 | 52.34736 | 10.71319 | 29222 ft | 400 kts | 48° |
| 2026-04-30 19:20 | 52.36528 | 10.74767 | 28644 ft | 396 kts | 49° |
| 2026-04-30 19:20 | 52.38302 | 10.78181 | 28094 ft | 392 kts | 49° |
| 2026-04-30 19:20 | 52.41796 | 10.84906 | 27053 ft | 384 kts | 49° |
| 2026-04-30 19:21 | 52.43517 | 10.88225 | 26540 ft | 380 kts | 49° |
| 2026-04-30 19:21 | 52.46899 | 10.94786 | 25703 ft | 374 kts | 49° |
| 2026-04-30 19:22 | 52.50238 | 11.01295 | 25212 ft | 371 kts | 49° |
| 2026-04-30 19:22 | 52.54340 | 11.11859 | 24510 ft | 370 kts | 71° |
| 2026-04-30 19:23 | 52.55029 | 11.24449 | 23776 ft | 370 kts | 84° |
| 2026-04-30 19:24 | 52.55219 | 11.32883 | 22896 ft | 363 kts | 84° |
| 2026-04-30 19:24 | 52.55311 | 11.36956 | 22359 ft | 360 kts | 84° |
| 2026-04-30 19:24 | 52.55490 | 11.45103 | 21323 ft | 353 kts | 84° |
| 2026-04-30 19:25 | 52.55731 | 11.57044 | 19889 ft | 344 kts | 84° |
| 2026-04-30 19:26 | 52.55887 | 11.64829 | 19002 ft | 338 kts | 84° |
| 2026-04-30 19:26 | 52.56037 | 11.72496 | 18029 ft | 333 kts | 85° |
| 2026-04-30 19:26 | 52.56109 | 11.76282 | 17542 ft | 331 kts | 85° |
| 2026-04-30 19:27 | 52.56208 | 11.83782 | 16565 ft | 328 kts | 91° |
| 2026-04-30 19:27 | 52.54908 | 11.90999 | 15640 ft | 330 kts | 106° |
| 2026-04-30 19:28 | 52.54128 | 11.94524 | 15196 ft | 328 kts | 106° |
| 2026-04-30 19:28 | 52.52563 | 12.01505 | 14333 ft | 323 kts | 107° |
| 2026-04-30 19:29 | 52.51029 | 12.08380 | 13414 ft | 319 kts | 106° |
| 2026-04-30 19:29 | 52.50272 | 12.11786 | 12942 ft | 316 kts | 106° |
| 2026-04-30 19:30 | 52.48022 | 12.21838 | 11631 ft | 308 kts | 106° |
| 2026-04-30 19:30 | 52.46574 | 12.28291 | 11085 ft | 294 kts | 106° |
| 2026-04-30 19:31 | 52.45191 | 12.34435 | 10599 ft | 280 kts | 106° |
| 2026-04-30 19:31 | 52.44523 | 12.37394 | 10445 ft | 275 kts | 106° |
| 2026-04-30 19:31 | 52.43204 | 12.43241 | 10432 ft | 273 kts | 106° |
| 2026-04-30 19:32 | 52.42545 | 12.46160 | 10429 ft | 273 kts | 106° |
| 2026-04-30 19:32 | 52.41884 | 12.49080 | 10432 ft | 273 kts | 106° |
| 2026-04-30 19:32 | 52.41221 | 12.52001 | 10433 ft | 274 kts | 105° |
| 2026-04-30 19:32 | 52.40555 | 12.54930 | 10431 ft | 275 kts | 105° |
| 2026-04-30 19:33 | 52.39890 | 12.57846 | 10236 ft | 272 kts | 105° |
| 2026-04-30 19:33 | 52.39226 | 12.60742 | 9808 ft | 271 kts | 106° |
| 2026-04-30 19:33 | 52.38562 | 12.63631 | 9400 ft | 270 kts | 106° |
| 2026-04-30 19:33 | 52.37903 | 12.66504 | 8994 ft | 269 kts | 107° |
| 2026-04-30 19:34 | 52.37245 | 12.69365 | 8593 ft | 268 kts | 107° |
| 2026-04-30 19:34 | 52.36589 | 12.72216 | 8184 ft | 267 kts | 107° |
| 2026-04-30 19:34 | 52.35299 | 12.77840 | 7395 ft | 265 kts | 107° |
| 2026-04-30 19:35 | 52.34653 | 12.80651 | 6989 ft | 264 kts | 108° |
| 2026-04-30 19:35 | 52.34009 | 12.83456 | 6555 ft | 263 kts | 108° |
| 2026-04-30 19:35 | 52.33366 | 12.86251 | 6135 ft | 262 kts | 108° |
| 2026-04-30 19:35 | 52.32722 | 12.89036 | 5713 ft | 261 kts | 109° |
| 2026-04-30 19:36 | 52.32082 | 12.91803 | 5295 ft | 260 kts | 109° |
| 2026-04-30 19:36 | 52.31449 | 12.94524 | 5029 ft | 252 kts | 109° |
| 2026-04-30 19:36 | 52.30234 | 12.99745 | 4508 ft | 239 kts | 109° |
| 2026-04-30 19:37 | 52.29649 | 13.02258 | 4252 ft | 234 kts | 109° |
| 2026-04-30 19:37 | 52.29074 | 13.04721 | 4101 ft | 231 kts | 109° |
| 2026-04-30 19:37 | 52.28501 | 13.07174 | 4079 ft | 231 kts | 109° |
| 2026-04-30 19:37 | 52.27928 | 13.09629 | 4081 ft | 231 kts | 109° |
| 2026-04-30 19:38 | 52.27357 | 13.12076 | 4078 ft | 230 kts | 108° |
| 2026-04-30 19:38 | 52.27077 | 13.14579 | 4083 ft | 217 kts | 86° |
| 2026-04-30 19:38 | 52.27361 | 13.16926 | 3963 ft | 209 kts | 67° |
| 2026-04-30 19:38 | 52.27895 | 13.19134 | 3734 ft | 209 kts | 66° |
| 2026-04-30 19:39 | 52.28429 | 13.21330 | 3466 ft | 208 kts | 67° |
| 2026-04-30 19:39 | 52.28960 | 13.23531 | 3191 ft | 208 kts | 67° |
| 2026-04-30 19:39 | 52.29489 | 13.25730 | 2905 ft | 206 kts | 67° |
| 2026-04-30 19:39 | 52.30004 | 13.27873 | 2625 ft | 199 kts | 67° |
| 2026-04-30 19:40 | 52.30500 | 13.29940 | 2392 ft | 191 kts | 66° |
| 2026-04-30 19:40 | 52.30977 | 13.31930 | 2125 ft | 186 kts | 66° |
| 2026-04-30 19:40 | 52.31440 | 13.33861 | 1863 ft | 177 kts | 66° |
| 2026-04-30 19:40 | 52.31873 | 13.35670 | 1643 ft | 165 kts | 66° |
| 2026-04-30 19:41 | 52.32271 | 13.37331 | 1434 ft | 149 kts | 66° |
| 2026-04-30 19:41 | 52.32632 | 13.38844 | 1230 ft | 139 kts | 66° |
| 2026-04-30 19:41 | 52.32978 | 13.40291 | 1048 ft | 135 kts | 66° |
| 2026-04-30 19:41 | 52.33319 | 13.41713 | 857 ft | 134 kts | 67° |
| 2026-04-30 19:42 | 52.33660 | 13.43126 | 701 ft | 133 kts | 68° |
| 2026-04-30 19:42 | 52.33997 | 13.44536 | 517 ft | 133 kts | 68° |
| 2026-04-30 19:42 | 52.34330 | 13.45941 | 329 ft | 132 kts | 68° |
| 2026-04-30 19:42 | 52.34664 | 13.47342 | 164 ft | 131 kts | 68° |
| 2026-04-30 19:43 | 52.34955 | 13.48565 | 154 ft | 97 kts | 70° |
| 2026-04-30 19:43 | 52.35172 | 13.49490 | 154 ft | 78 kts | 69° |
| 2026-04-30 19:43 | 52.35344 | 13.50214 | 154 ft | 48 kts | 69° |
| 2026-04-30 19:44 | 52.35571 | 13.50677 | 155 ft | 17 kts | 39° |
| 2026-04-30 19:44 | 52.35673 | 13.50809 | 155 ft | 20 kts | 38° |
| 2026-04-30 19:44 | 52.35805 | 13.50804 | 155 ft | 18 kts | 339° |
| 2026-04-30 19:44 | 52.35909 | 13.50800 | 155 ft | 17 kts | 51° |
| 2026-04-30 19:45 | 52.35948 | 13.50952 | 155 ft | 14 kts | 69° |
| 2026-04-30 19:45 | 52.35986 | 13.51110 | 155 ft | 16 kts | 69° |
| 2026-04-30 19:45 | 52.36011 | 13.51209 | 155 ft | 2 kts | 53° |
| 2026-04-30 19:45 | 52.36026 | 13.51220 | 155 ft | 5 kts | 22° |
| 2026-04-30 19:46 | 52.36053 | 13.51209 | 155 ft | 4 kts | 324° |
| 2026-04-30 19:46 | 52.36073 | 13.51191 | 155 ft | 3 kts | 337° |
| 2026-04-30 19:46 | 52.36090 | 13.51180 | 155 ft | 2 kts | 339° |
| 2026-04-30 19:46 | 52.36096 | 13.51177 | 155 ft | 0 kts | 339° |